Dexter, Michigan
Current Conditions -  °F | °C
As of 4:53 PM on Monday 24 Nov 2014 (Local Time) from KARB Reporting Station
Overcast Overcast  
Wind Chill: -3°   Ceiling: 2200
Heat Index:   Visibility: 10mi
Dew Point: -1°   Wind: 31mph
Humidity: 70%   Direction: 240°WSW
Pressure: 29.47"   Gusts: 46mph
Location:  42.34°N, 83.89°W
Report Text: KARB 242153Z 24027G40KT 10SM OVC022 04/M01 A2947 RMK AO2 PK WND 23041/2143 SLP982 T00391011
Loading
Personal Weather Stations






























Interactive Weather Map New forecast layout! Learn more

10-Day Weather Forecast

Advertisements
Track Severe Weather on mobile